KMAO

Marion County Airport

Marion, South Carolina, USA
METAR KMAO 230255Z AUTO 00000KT 7SM CLR 22/20 A3011 RMK AO2
Observed Flight Rules
May-23 @ 02:55 UTC (13 minutes ago) Visual Flight Rules
Visibility Clouds
7 miles
  • Clear skies
Temperatures Readings
Current 22°C / 72°F
Dewpoint 20°C / 68°F
Humidity 88%
Altimeter 30.11" Hg
Pressure 1020 hPa
Elevation 28
METAR KMAO 230255Z AUTO 00000KT 7SM CLR 22/20 A3011 RMK AO2
Observed Flight Rules
May-23 @ 02:55 UTC
(13 minutes ago)
VFR
Clouds
  • Clear skies
Temperature Dewpoint
22°C / 72°F 20°C / 68°F
Humidity Altimeter Pressure
88% 30.11" Hg 1020 hPa